Terminal Aerodrome Forecast
Issued by NWS Raleigh/Durham, NC

Home | Current Version | Previous Version | Text Only | Print | Product List | Glossary On
Versions: 1 2 3 4 5 6 7 8 9 10 11 12 13 14 15 16 17 18 19 20
000
FTUS42 KRAH 020600 CCA
TAFFAY
TAF COR
KFAY 020600Z 0206/0306 21006KT P6SM BKN008
      TEMPO 0208/0211 4SM -SHRA SCT008 BKN015 BKN150
     FM021400 21008KT P6SM SCT015
      TEMPO 0214/0216 4SM -SHRA SCT008 BKN015 BKN150
     FM021700 23012KT P6SM FEW035 PROB30 0220/0224 27015G30KT -TSRA
      SCT020 BKN035CB OVC120=

USA.gov is the U.S. government's official web portal to all federal, state and local government web resources and services.